createdAt,value
2024-04-19T00:06:05.057Z,2.7
2024-04-19T00:12:25.077Z,2.7
2024-04-19T00:18:47.065Z,2.9
2024-04-19T00:25:07.033Z,2.9
2024-04-19T00:31:29.024Z,1.5
2024-04-19T00:37:49.099Z,1.5
2024-04-19T00:44:11.058Z,3.3
2024-04-19T00:50:31.046Z,3.3
2024-04-19T00:56:53.040Z,3.4
2024-04-19T01:03:13.138Z,3.4
2024-04-19T01:09:35.062Z,4.8
2024-04-19T01:15:55.059Z,4.8
2024-04-19T01:22:16.959Z,1
2024-04-19T01:28:36.737Z,1
2024-04-19T01:34:58.602Z,3.3
2024-04-19T01:41:18.675Z,3.3
2024-04-19T01:47:40.694Z,2.4
2024-04-19T01:54:00.714Z,2.4
2024-04-19T02:00:22.663Z,4.5
2024-04-19T02:06:42.713Z,4.5
2024-04-19T02:13:04.582Z,2.1
2024-04-19T02:19:24.687Z,2.1
2024-04-19T02:25:46.591Z,3.1
2024-04-19T02:32:06.790Z,3.1
2024-04-19T02:38:28.597Z,0.8
2024-04-19T02:44:48.671Z,0.8
2024-04-19T02:51:10.613Z,25.7
2024-04-19T02:57:30.713Z,25.7
2024-04-19T03:03:52.701Z,1.4
2024-04-19T03:28:34.502Z,3.8
2024-04-19T03:34:53.548Z,3.8
2024-04-19T03:41:15.646Z,3.8
2024-04-19T03:47:35.743Z,3.8
2024-04-19T03:53:57.682Z,2.1
2024-04-19T04:00:17.628Z,2.1
2024-04-19T04:06:39.708Z,1.7
2024-04-19T04:12:59.681Z,1.7
2024-04-19T04:19:21.572Z,3
2024-04-19T04:25:41.592Z,3
2024-04-19T04:32:03.543Z,1.7
2024-04-19T04:38:23.555Z,1.7
2024-04-19T04:44:45.716Z,2.6
2024-04-19T04:51:06.636Z,2.6
2024-04-19T04:57:27.765Z,1.8
2024-04-19T05:03:47.740Z,1.8
2024-04-19T05:10:09.657Z,4.5
2024-04-19T05:16:29.601Z,4.5
2024-04-19T05:22:51.567Z,0.8
2024-04-19T05:29:11.745Z,0.8
2024-04-19T05:35:33.778Z,0.1
2024-04-19T05:41:53.606Z,0.1
2024-04-19T05:48:17.440Z,3.2
2024-04-19T05:54:38.070Z,3.2
2024-04-19T06:00:57.885Z,1.9
2024-04-19T06:07:17.749Z,1.9
2024-04-19T06:13:39.730Z,0.6
2024-04-19T06:19:59.699Z,0.6
2024-04-19T06:26:21.683Z,0.5
2024-04-19T06:32:41.733Z,0.5
2024-04-19T06:39:03.736Z,0.2
2024-04-19T06:45:23.783Z,0.2
2024-04-19T06:51:45.847Z,0.2
2024-04-19T06:58:05.589Z,0.2
2024-04-19T07:04:27.766Z,0.2
2024-04-19T07:10:47.543Z,0.2
2024-04-19T07:17:09.621Z,0.4
2024-04-19T07:23:29.604Z,0.4
2024-04-19T07:29:51.667Z,0.3
2024-04-19T07:36:11.727Z,0.3
2024-04-19T07:42:33.699Z,0.2
2024-04-19T07:48:53.696Z,0.2
2024-04-19T07:55:15.630Z,0.2
2024-04-19T08:01:35.672Z,0.2
2024-04-19T08:07:57.590Z,0.1
2024-04-19T08:14:17.778Z,0.1
2024-04-19T08:20:39.580Z,0.4
2024-04-19T08:36:27.452Z,0.2
2024-04-19T08:42:46.615Z,0.2
2024-04-19T08:49:08.659Z,0.6
2024-04-19T08:55:28.656Z,0.6
2024-04-19T09:01:50.565Z,0.6
2024-04-19T09:08:10.731Z,0.6
2024-04-19T09:14:32.612Z,0.2
2024-04-19T09:20:52.546Z,0.2
2024-04-19T09:27:15.850Z,0.5
2024-04-19T09:33:34.720Z,0.5
2024-04-19T09:39:56.811Z,0.5
2024-04-19T09:46:16.583Z,0.5
2024-04-19T09:52:38.626Z,1.6
2024-04-19T09:58:58.724Z,1.6
2024-04-19T10:05:20.636Z,2.6
2024-04-19T10:11:40.848Z,2.6
2024-04-19T10:18:04.928Z,3
2024-04-19T10:24:22.987Z,3
2024-04-19T10:30:44.692Z,3.3
2024-04-19T10:37:04.571Z,3.3
2024-04-19T10:43:26.578Z,2.3
2024-04-19T10:49:46.661Z,2.3
2024-04-19T10:56:08.623Z,1.7
2024-04-19T11:02:28.712Z,1.7
2024-04-19T11:08:50.650Z,0.8
2024-04-19T11:15:10.697Z,0.8
2024-04-19T11:21:32.616Z,4.2
2024-04-19T11:27:52.638Z,4.2
2024-04-19T11:34:14.626Z,1.3
2024-04-19T11:40:34.797Z,1.3
2024-04-19T11:46:56.644Z,0.8
2024-04-19T11:53:16.596Z,0.8
2024-04-19T11:59:38.607Z,4.7
2024-04-19T12:05:58.635Z,4.7
2024-04-19T12:12:51.292Z,0.2
2024-04-19T12:18:40.887Z,0.2
2024-04-19T12:25:04.192Z,1
2024-04-19T12:31:22.819Z,1
2024-04-19T12:37:44.602Z,0.7
2024-04-19T12:44:04.724Z,0.7
2024-04-19T12:50:26.595Z,1.8
2024-04-19T12:56:46.613Z,1.8
2024-04-19T13:03:08.620Z,6.1
2024-04-19T13:26:20.115Z,3.5
2024-04-19T13:32:39.570Z,3.5
2024-04-19T13:39:01.597Z,3.5
2024-04-19T13:45:21.675Z,3.5
2024-04-19T13:51:43.663Z,7.1
2024-04-19T13:58:03.603Z,7.1
2024-04-19T14:04:25.705Z,0.1
2024-04-19T14:10:45.849Z,0.1
2024-04-19T14:17:07.615Z,0.2
2024-04-19T14:23:27.758Z,0.2
2024-04-19T14:29:49.848Z,20.5
2024-04-19T14:36:09.757Z,20.5
2024-04-19T14:42:31.617Z,0.2
2024-04-19T14:48:51.749Z,0.2
2024-04-19T14:55:13.615Z,11.9
2024-04-19T15:01:33.722Z,11.9
2024-04-19T15:07:55.628Z,0.6
2024-04-19T15:14:15.771Z,0.6
2024-04-19T15:20:37.701Z,0.3
2024-04-19T15:26:57.921Z,0.3
2024-04-19T15:33:19.770Z,0.5
2024-04-19T15:39:39.741Z,0.5
2024-04-19T15:46:01.818Z,0.3
2024-04-19T15:52:21.612Z,0.3
2024-04-19T15:58:43.710Z,0.8
2024-04-19T16:05:03.726Z,0.8
2024-04-19T16:11:25.928Z,3.2
2024-04-19T16:17:45.602Z,3.2
2024-04-19T16:24:07.587Z,0.4
2024-04-19T16:30:27.659Z,0.4
2024-04-19T16:36:49.685Z,3.4
2024-04-19T16:43:09.737Z,3.4
2024-04-19T16:49:31.769Z,0.8
2024-04-19T16:55:51.596Z,0.8
2024-04-19T17:02:13.580Z,3.8
2024-04-19T17:08:33.574Z,3.8
2024-04-19T17:14:55.606Z,1.1
2024-04-19T17:21:15.696Z,1.1
2024-04-19T17:27:37.650Z,2.5
2024-04-19T17:33:57.808Z,2.5
2024-04-19T17:40:19.639Z,1.9
2024-04-19T17:57:01.269Z,1.8
2024-04-19T18:03:23.081Z,8.5
2024-04-19T18:09:42.564Z,8.5
2024-04-19T18:16:04.711Z,8.5
2024-04-19T18:22:24.557Z,8.5
2024-04-19T18:28:46.601Z,0.4
2024-04-19T18:35:06.533Z,0.4
2024-04-19T18:41:27.650Z,4
2024-04-19T18:47:47.726Z,4
2024-04-19T18:54:09.726Z,1
2024-04-19T19:00:29.600Z,1
2024-04-19T19:06:51.663Z,0.2
2024-04-19T19:13:11.614Z,0.2
2024-04-19T19:19:33.554Z,1
2024-04-19T19:25:53.704Z,1
2024-04-19T19:32:15.704Z,0.5
2024-04-19T19:38:35.593Z,0.5
2024-04-19T19:44:57.560Z,1.5
2024-04-19T19:51:18.003Z,1.5
2024-04-19T19:57:40.867Z,0.6
2024-04-19T20:04:00.788Z,0.6
2024-04-19T20:10:22.792Z,1.2
2024-04-19T20:16:42.645Z,1.2
2024-04-19T20:23:04.584Z,0.1
2024-04-19T20:29:24.669Z,0.1
2024-04-19T20:35:46.693Z,7.1
2024-04-19T20:42:06.643Z,7.1
2024-04-19T20:48:28.763Z,7.5
2024-04-19T20:54:48.649Z,7.5
2024-04-19T21:01:10.823Z,0.3
2024-04-19T21:07:30.563Z,0.3
2024-04-19T21:13:52.541Z,0.4
2024-04-19T21:20:12.759Z,0.4
2024-04-19T21:26:34.593Z,5.9
2024-04-19T21:32:54.737Z,5.9
2024-04-19T21:39:16.612Z,1.3
2024-04-19T21:45:36.672Z,1.3
2024-04-19T21:51:58.579Z,1.8
2024-04-19T21:58:18.686Z,1.8
2024-04-19T22:22:34.575Z,18.5
2024-04-19T22:28:54.540Z,18.5
2024-04-19T22:35:16.550Z,18.5
2024-04-19T22:41:36.761Z,18.5
2024-04-19T22:47:58.642Z,1.8
2024-04-19T22:54:18.653Z,1.8
2024-04-19T23:00:40.609Z,3.9
2024-04-19T23:07:00.660Z,3.9
2024-04-19T23:13:22.647Z,4.7
2024-04-19T23:19:42.661Z,4.7
2024-04-19T23:26:04.600Z,31.6
2024-04-19T23:32:24.626Z,31.6
2024-04-19T23:38:46.649Z,24
2024-04-19T23:45:06.733Z,24
2024-04-19T23:51:28.650Z,3.3
2024-04-19T23:57:48.708Z,3.3
